Surface/Precipitation History
02/24/2017 18:19  to  2/25/2017 18:19
Change End Date:
Date/Time
(MST)
Sf
Temp Chem Water Layer Surface Precipitation
Sfc Pvt Sub Frz Factor Pct Dpth DpthThk IcePct Cond Salin FI Type Intens Accum Rate
02/25/2017 18:12 Ice Watch 25.0F - 31F - 45 - - - - 0 mhos 11 - None None - -
02/25/2017 18:11 Ice Watch 25.0F - 31F - 45 - - - - 0 mhos 11 - None None - -
02/25/2017 18:01 Ice Watch 25.7F - 31F - 45 - - - - 0 mhos 9 - None None - -
02/25/2017 17:57 Ice Watch 26.1F - 31F - 40 - - - - 0 mhos 8 - None None - -
02/25/2017 17:51 Ice Watch 26.6F - 31F - 35 - - - - 0 mhos 6 - None None - -
02/25/2017 17:42 Ice Watch 27.7F - 32F - 30 - - - - 0 mhos 5 - None None - -
02/25/2017 17:41 Ice Watch 27.7F - 32F - 30 - - - - 0 mhos 5 - None None - -
02/25/2017 17:31 Ice Watch 28.8F - 33F - 25 - - - - 0 mhos 5 - None None - -
02/25/2017 17:27 Ice Watch 29.1F - 33F - 25 - - - - 0 mhos 5 - None None - -
02/25/2017 17:21 Ice Watch 29.8F - 34F - 25 - - - - 0 mhos 4 - None None - -
02/25/2017 17:12 Ice Watch 31.1F - 34F - 15 - - - - 0 mhos 4 - None None - -
02/25/2017 17:10 Ice Watch 31.5F - 35F - 15 - - - - 0 mhos 4 - None None - -
02/25/2017 17:00 Trace Moisture 33.3F - 35F - 20 - - - - 0 mhos 4 - None None - -
02/25/2017 16:57 Trace Moisture 33.4F - 35F - 20 - - - - 0 mhos 4 - None None - -
02/25/2017 16:50 Trace Moisture 34.5F - 36F - 20 - - - - 0 mhos 4 - None None - -
Date/Time
(MST)
Sf
Temp Chem Water Layer Surface Precipitation
Sfc Pvt Sub Frz Factor Pct Dpth DpthThk IcePct Cond Salin FI Type Intens Accum Rate
02/25/2017 16:42 Trace Moisture 36.3F - 36F - 20 - - - - 0 mhos 4 - None None - -
02/25/2017 16:40 Trace Moisture 36.3F - 37F - 20 - - - - 0 mhos 3 - None None - -
02/25/2017 16:30 Trace Moisture 37.8F - 37F - 10 - - - - 0 mhos 2 - None None - -
02/25/2017 16:27 Trace Moisture 38.1F - 37F - 5 - - - - 0 mhos 1 - None None - -
02/25/2017 16:20 Trace Moisture 38.5F - 38F - 5 - - - - 0 mhos 1 - None None - -
02/25/2017 16:12 Trace Moisture 40.1F - 38F - 5 - - - - 0 mhos 0 - None None - -
02/25/2017 16:10 Trace Moisture 40.6F - 38F - 5 - - - - 0 mhos 0 - None None - -
02/25/2017 16:00 Trace Moisture 42.1F - 38F - 5 - - - - 0 mhos 0 - None None - -
02/25/2017 15:57 Trace Moisture 43.0F - 39F - 5 - - - - 0 mhos 0 - None None - -
02/25/2017 15:50 Trace Moisture 43.7F - 39F - 5 - - - - 0 mhos 0 - None None - -
02/25/2017 15:42 Trace Moisture 45.0F - 39F - 5 - - - - 0 mhos 0 - None None - -
02/25/2017 15:40 Trace Moisture 45.1F - 39F - 10 - - - - 0 mhos 0 - None None - -
02/25/2017 15:30 Trace Moisture 46.4F - 39F - 5 - - - - 0 mhos 0 - None None - -
02/25/2017 15:27 Trace Moisture 46.6F - 39F - 5 - - - - 0 mhos 0 - None None - -
02/25/2017 15:20 Trace Moisture 46.4F - 38F - 5 - - - - 0 mhos 1 - None None - -
Date/Time
(MST)
Sf
Temp Chem Water Layer Surface Precipitation
Sfc Pvt Sub Frz Factor Pct Dpth DpthThk IcePct Cond Salin FI Type Intens Accum Rate
02/25/2017 15:12 Trace Moisture 45.3F - 38F - 5 - - - - 0 mhos 1 - None None - -
02/25/2017 15:10 Trace Moisture 44.8F - 38F - 5 - - - - 0 mhos 2 - None None - -
02/25/2017 15:00 Trace Moisture 46.2F - 38F - 5 - - - - 0 mhos 5 - None None - -
02/25/2017 14:57 Trace Moisture 45.5F - 38F - 5 - - - - 0 mhos 14 - None None - -
02/25/2017 14:50 Trace Moisture 43.9F - 38F - 25 - - - - 1 mhos 61 - None None - -
02/25/2017 14:42 Trace Moisture 45.0F - 38F - 5 - - - - 0 mhos 0 - None None - -
02/25/2017 14:40 Trace Moisture 45.0F - 38F - 5 - - - - 0 mhos 0 - None None - -
02/25/2017 14:30 Trace Moisture 46.6F - 37F - 10 - - - - 0 mhos 0 - None None - -
02/25/2017 14:27 Trace Moisture 47.5F - 37F - 10 - - - - 0 mhos 0 - None None - -
02/25/2017 14:20 Trace Moisture 45.3F - 37F - 5 - - - - 0 mhos 0 - None None - -
02/25/2017 14:12 Trace Moisture 43.2F - 37F - 5 - - - - 0 mhos 0 - None None - -
02/25/2017 14:10 Trace Moisture 43.0F - 37F - 5 - - - - 0 mhos 0 - None None - -
02/25/2017 14:00 Trace Moisture 42.6F - 37F - 5 - - - - 0 mhos 0 - None None - -
02/25/2017 13:57 Trace Moisture 42.3F - 37F - 5 - - - - 0 mhos 0 - None None - -
02/25/2017 13:49 Trace Moisture 42.8F - 37F - 10 - - - - 0 mhos 0 - None None - -
Date/Time
(MST)
Sf
Temp Chem Water Layer Surface Precipitation
Sfc Pvt Sub Frz Factor Pct Dpth DpthThk IcePct Cond Salin FI Type Intens Accum Rate
02/25/2017 13:42 Trace Moisture 44.1F - 37F - 5 - - - - 0 mhos 0 - None None - -
02/25/2017 13:39 Trace Moisture 43.5F - 37F - 5 - - - - 0 mhos 0 - None None - -
02/25/2017 13:29 Trace Moisture 44.6F - 37F - 5 - - - - 0 mhos 0 - None None - -
02/25/2017 13:27 Trace Moisture 44.8F - 37F - 5 - - - - 0 mhos 0 - None None - -
02/25/2017 13:19 Trace Moisture 45.0F - 36F - 5 - - - - 0 mhos 0 - None None - -
02/25/2017 13:12 Trace Moisture 45.9F - 36F - 5 - - - - 0 mhos 0 - None None - -
02/25/2017 13:09 Trace Moisture 45.9F - 36F - 5 - - - - 0 mhos 0 - None None - -
02/25/2017 12:59 Trace Moisture 46.0F - 35F - 5 - - - - 0 mhos 1 - None None - -
02/25/2017 12:57 Trace Moisture 46.2F - 35F - 5 - - - - 0 mhos 1 - None None - -
02/25/2017 12:49 Trace Moisture 45.5F - 34F - 5 - - - - 0 mhos 14 - None None - -
02/25/2017 12:42 Trace Moisture 43.9F - 34F - 5 - - - - 2 mhos 139 - None None - -
02/25/2017 12:39 Trace Moisture 43.3F - 33F - 5 - - - - 2 mhos 166 - None None - -
02/25/2017 12:29 Trace Moisture 41.4F - 33F - 10 - - - - 3 mhos 260 - None None - -
02/25/2017 12:27 Trace Moisture 40.6F - 32F - 10 - - - - 3 mhos 305 - None None - -
02/25/2017 12:19 Trace Moisture 39.2F - 32F - 20 - - - - 6 mhos 508 - None None - -
Date/Time
(MST)
Sf
Temp Chem Water Layer Surface Precipitation
Sfc Pvt Sub Frz Factor Pct Dpth DpthThk IcePct Cond Salin FI Type Intens Accum Rate
02/25/2017 12:12 Trace Moisture 38.1F - 31F - 40 - - - - 14 mhos 1377 - None None - -
02/25/2017 12:09 Trace Moisture 37.9F - 31F - 50 - - - - 16 mhos 1562 - None None - -
02/25/2017 11:59 Trace Moisture 37.4F - 30F - 95 - - - - 22 mhos 2206 - None None - -
02/25/2017 11:57 Trace Moisture 37.6F - 30F - 95 - - - - 23 mhos 2316 - None None - -
02/25/2017 11:49 Trace Moisture 37.0F - 30F - 95 - - - - 30 mhos 3125 - None None - -
02/25/2017 11:42 Trace Moisture 36.7F - 30F - 95 - - - - 36 mhos 3920 - None None - -
02/25/2017 11:39 Trace Moisture 36.5F - 30F - 95 - - - - 36 mhos 3929 - None None - -
02/25/2017 11:29 Trace Moisture 35.6F - 29F - 95 - - - - 41 mhos 4568 - None None - -
02/25/2017 11:27 Trace Moisture 35.1F - 29F - 95 - - - - 40 mhos 4504 - None None - -
02/25/2017 11:19 Trace Moisture 33.6F - 29F - 95 - - - - 30 mhos 3320 - None None - -
02/25/2017 11:12 Ice Watch 32.0F - 28F - 95 - - - - 32 mhos 3657 - None None - -
02/25/2017 11:09 Ice Watch 30.4F - 28F - 95 - - - - 33 mhos 3882 - None None - -
02/25/2017 10:59 Ice Watch 28.2F - 28F - 95 - - - - 7 mhos 899 - None None - -
02/25/2017 10:57 Ice Watch 27.7F - 27F - 95 - - - - 1 mhos 71 - None None - -
02/25/2017 10:49 Ice Watch 26.2F - 27F - 95 - - - - 0 mhos 72 - None None - -
Date/Time
(MST)
Sf
Temp Chem Water Layer Surface Precipitation
Sfc Pvt Sub Frz Factor Pct Dpth DpthThk IcePct Cond Salin FI Type Intens Accum Rate
02/25/2017 10:42 Ice Watch 26.1F - 27F - 95 - - - - 0 mhos 72 - None None - -
02/25/2017 10:39 Ice Watch 26.2F - 27F - 95 - - - - 0 mhos 72 - None None - -
02/25/2017 10:29 Ice Watch 26.2F - 26F - 95 - - - - 0 mhos 76 - None None - -
02/25/2017 10:27 Ice Watch 26.2F - 26F - 95 - - - - 0 mhos 76 - None None - -
02/25/2017 10:18 Ice Watch 25.3F - 25F - 95 - - - - 1 mhos 88 - None None - -
02/25/2017 10:12 Ice Watch 24.6F - 25F - 95 - - - - 1 mhos 95 - None None - -
02/25/2017 10:08 Ice Watch 23.5F - 25F - 95 - - - - 1 mhos 103 - None None - -
02/25/2017 09:58 Ice Watch 23.2F - 24F - 95 - - - - 1 mhos 106 - None None - -
02/25/2017 09:57 Ice Watch 23.2F - 24F - 95 - - - - 1 mhos 105 - None None - -
02/25/2017 09:48 Ice Watch 23.5F - 24F - 95 - - - - 1 mhos 107 - None None - -
02/25/2017 09:42 Ice Watch 23.0F - 23F - 95 - - - - 1 mhos 114 - None None - -
02/25/2017 09:38 Ice Watch 22.6F - 23F - 95 - - - - 1 mhos 118 - None None - -
02/25/2017 09:28 Ice Watch 20.1F - 22F - 95 - - - - 1 mhos 142 - None None - -
02/25/2017 09:27 Ice Watch 20.1F - 22F - 95 - - - - 1 mhos 144 - None None - -
02/25/2017 09:18 Ice Watch 19.2F - 22F - 90 - - - - 1 mhos 150 - None None - -
Date/Time
(MST)
Sf
Temp Chem Water Layer Surface Precipitation
Sfc Pvt Sub Frz Factor Pct Dpth DpthThk IcePct Cond Salin FI Type Intens Accum Rate
02/25/2017 09:12 Ice Watch 19.0F - 22F - 90 - - - - 1 mhos 153 - None None - -
02/25/2017 09:08 Ice Watch 19.0F - 22F - 90 - - - - 1 mhos 153 - None None - -
02/25/2017 08:58 Ice Watch 19.0F - 21F - 90 - - - - 1 mhos 156 - None None - -
02/25/2017 08:57 Ice Watch 19.2F - 21F - 90 - - - - 1 mhos 154 - None None - -
02/25/2017 08:48 Ice Watch 18.3F - 21F - 90 - - - - 1 mhos 164 - None None - -
02/25/2017 08:42 Ice Watch 17.4F - 20F - 85 - - - - 1 mhos 173 - None None - -
02/25/2017 08:38 Ice Watch 16.9F - 20F - 85 - - - - 0 mhos 175 - None None - -
02/25/2017 08:28 Ice Watch 15.6F - 20F - 85 - - - - 0 mhos 186 - None None - -
02/25/2017 08:27 Ice Watch 15.6F - 20F - 80 - - - - 0 mhos 186 - None None - -
02/25/2017 08:18 Ice Watch 15.6F - 20F - 80 - - - - 0 mhos 184 - None None - -
02/25/2017 08:12 Ice Watch 15.6F - 20F - 80 - - - - 0 mhos 183 - None None - -
02/25/2017 08:08 Ice Watch 15.8F - 20F - 80 - - - - 0 mhos 180 - None None - -
02/25/2017 07:58 Ice Watch 16.0F - 21F - 80 - - - - 0 mhos 176 - None None - -
02/25/2017 07:57 Ice Watch 16.0F - 21F - 80 - - - - 0 mhos 176 - None None - -
02/25/2017 07:48 Ice Watch 16.2F - 21F - 80 - - - - 0 mhos 172 - None None - -
Date/Time
(MST)
Sf
Temp Chem Water Layer Surface Precipitation
Sfc Pvt Sub Frz Factor Pct Dpth DpthThk IcePct Cond Salin FI Type Intens Accum Rate
02/25/2017 07:42 Ice Watch 16.3F - 21F - 80 - - - - 0 mhos 170 - None None - -
02/25/2017 07:38 Ice Watch 16.7F - 21F - 85 - - - - 0 mhos 167 - None None - -
02/25/2017 07:28 Ice Watch 16.7F - 21F - 85 - - - - 0 mhos 171 - None None - -
02/25/2017 07:27 Ice Watch 16.9F - 21F - 85 - - - - 0 mhos 168 - None None - -
02/25/2017 07:18 Ice Watch 17.1F - 21F - 85 - - - - 0 mhos 165 - None None - -
02/25/2017 07:12 Ice Watch 17.1F - 21F - 85 - - - - 0 mhos 164 - None None - -
02/25/2017 07:08 Ice Watch 17.1F - 21F - 85 - - - - 0 mhos 161 - None None - -
02/25/2017 06:57 Ice Watch 17.4F - 21F - 85 - - - - 0 mhos 158 - None None - -
02/25/2017 06:57 Ice Watch 17.6F - 22F - 85 - - - - 0 mhos 155 - None None - -
02/25/2017 06:47 Ice Watch 17.4F - 22F - 85 - - - - 0 mhos 155 - None None - -
02/25/2017 06:42 Ice Watch 17.6F - 22F - 85 - - - - 0 mhos 151 - None None - -
02/25/2017 06:37 Ice Watch 17.6F - 22F - 85 - - - - 0 mhos 151 - None None - -
02/25/2017 06:27 Ice Watch 18.0F - 22F - 85 - - - - 0 mhos 145 - None None - -
02/25/2017 06:27 Ice Watch 18.0F - 22F - 85 - - - - 0 mhos 145 - None None - -
02/25/2017 06:17 Ice Watch 18.3F - 22F - 85 - - - - 0 mhos 140 - None None - -
Date/Time
(MST)
Sf
Temp Chem Water Layer Surface Precipitation
Sfc Pvt Sub Frz Factor Pct Dpth DpthThk IcePct Cond Salin FI Type Intens Accum Rate
02/25/2017 06:12 Ice Watch 18.7F - 22F - 85 - - - - 0 mhos 136 - None None - -
02/25/2017 06:07 Ice Watch 18.9F - 22F - 85 - - - - 0 mhos 135 - None None - -
02/25/2017 05:57 Ice Watch 19.8F - 23F - 85 - - - - 0 mhos 126 - None None - -
02/25/2017 05:57 Ice Watch 19.8F - 23F - 85 - - - - 0 mhos 126 - None None - -
02/25/2017 05:47 Ice Watch 21.0F - 23F - 90 - - - - 0 mhos 118 - None None - -
02/25/2017 05:42 Ice Watch 21.2F - 23F - 95 - - - - 0 mhos 121 - None None - -
02/25/2017 05:37 Ice Watch 21.4F - 23F - 95 - - - - 0 mhos 119 - None None - -
02/25/2017 05:27 Ice Watch 21.7F - 23F - 95 - - - - 0 mhos 117 - None None - -
02/25/2017 05:27 Ice Watch 21.7F - 23F - 95 - - - - 0 mhos 117 - None None - -
02/25/2017 05:17 Ice Watch 21.9F - 23F - 95 - - - - 0 mhos 114 - None None - -
02/25/2017 05:12 Ice Watch 22.1F - 24F - 95 - - - - 0 mhos 111 - None None - -
02/25/2017 05:07 Ice Watch 22.1F - 24F - 95 - - - - 0 mhos 112 - None None - -
02/25/2017 04:57 Ice Watch 22.1F - 24F - 95 - - - - 0 mhos 110 - None None - -
02/25/2017 04:57 Ice Watch 22.1F - 24F - 95 - - - - 0 mhos 110 - None None - -
02/25/2017 04:47 Ice Watch 22.5F - 24F - 95 - - - - 0 mhos 107 - None None - -
Date/Time
(MST)
Sf
Temp Chem Water Layer Surface Precipitation
Sfc Pvt Sub Frz Factor Pct Dpth DpthThk IcePct Cond Salin FI Type Intens Accum Rate
02/25/2017 04:42 Ice Watch 22.5F - 24F - 95 - - - - 0 mhos 105 - None None - -
02/25/2017 04:37 Ice Watch 22.6F - 24F - 95 - - - - 0 mhos 103 - None None - -
02/25/2017 04:27 Ice Watch 23.0F - 24F - 95 - - - - 0 mhos 101 - None None - -
02/25/2017 04:27 Ice Watch 23.0F - 24F - 95 - - - - 0 mhos 102 - None None - -
02/25/2017 04:17 Ice Watch 23.2F - 24F - 95 - - - - 0 mhos 101 - None None - -
02/25/2017 04:12 Ice Watch 23.2F - 24F - 95 - - - - 0 mhos 101 - None None - -
02/25/2017 04:07 Ice Watch 23.2F - 24F - 95 - - - - 0 mhos 100 - None None - -
02/25/2017 03:57 Ice Watch 22.8F - 24F - 95 - - - - 0 mhos 103 - None None - -
02/25/2017 03:57 Ice Watch 22.8F - 24F - 95 - - - - 0 mhos 102 - None None - -
02/25/2017 03:47 Ice Watch 22.8F - 24F - 95 - - - - 0 mhos 102 - None None - -
02/25/2017 03:42 Ice Watch 22.8F - 24F - 95 - - - - 0 mhos 101 - None None - -
02/25/2017 03:37 Ice Watch 23.0F - 25F - 95 - - - - 0 mhos 99 - None None - -
02/25/2017 03:27 Ice Watch 23.0F - 25F - 95 - - - - 0 mhos 99 - None None - -
02/25/2017 03:27 Ice Watch 23.0F - 25F - 95 - - - - 0 mhos 99 - None None - -
02/25/2017 03:16 Ice Watch 23.0F - 25F - 95 - - - - 0 mhos 99 - None None - -
Date/Time
(MST)
Sf
Temp Chem Water Layer Surface Precipitation
Sfc Pvt Sub Frz Factor Pct Dpth DpthThk IcePct Cond Salin FI Type Intens Accum Rate
02/25/2017 03:12 Ice Watch 23.2F - 25F - 95 - - - - 0 mhos 97 - None None - -
02/25/2017 03:06 Ice Watch 23.2F - 25F - 95 - - - - 0 mhos 97 - None None - -
02/25/2017 02:57 Ice Watch 23.2F - 25F - 95 - - - - 0 mhos 96 - None None - -
02/25/2017 02:56 Ice Watch 23.2F - 25F - 95 - - - - 0 mhos 96 - None None - -
02/25/2017 02:46 Ice Watch 23.2F - 25F - 95 - - - - 0 mhos 95 - None None - -
02/25/2017 02:42 Ice Watch 23.2F - 25F - 95 - - - - 0 mhos 94 - None None - -
02/25/2017 02:36 Ice Watch 23.2F - 25F - 95 - - - - 0 mhos 94 - None None - -
02/25/2017 02:27 Ice Watch 23.2F - 25F - 95 - - - - 0 mhos 94 - None None - -
02/25/2017 02:26 Ice Watch 23.2F - 25F - 95 - - - - 0 mhos 93 - None None - -
02/25/2017 02:16 Ice Watch 23.2F - 25F - 95 - - - - 0 mhos 93 - None None - -
02/25/2017 02:12 Ice Watch 23.2F - 25F - 95 - - - - 0 mhos 93 - None None - -
02/25/2017 02:06 Ice Watch 23.2F - 25F - 95 - - - - 0 mhos 93 - None None - -
02/25/2017 01:57 Ice Watch 23.2F - 26F - 95 - - - - 0 mhos 94 - None None - -
02/25/2017 01:56 Ice Watch 23.2F - 26F - 95 - - - - 0 mhos 94 - None None - -
02/25/2017 01:46 Ice Watch 23.0F - 26F - 95 - - - - 0 mhos 95 - None None - -
Date/Time
(MST)
Sf
Temp Chem Water Layer Surface Precipitation
Sfc Pvt Sub Frz Factor Pct Dpth DpthThk IcePct Cond Salin FI Type Intens Accum Rate
02/25/2017 01:42 Ice Watch 23.0F - 26F - 95 - - - - 0 mhos 95 - None None - -
02/25/2017 01:36 Ice Watch 22.8F - 26F - 95 - - - - 0 mhos 96 - None None - -
02/25/2017 01:27 Ice Watch 22.5F - 26F - 90 - - - - 0 mhos 98 - None None - -
02/25/2017 01:26 Ice Watch 22.5F - 26F - 90 - - - - 0 mhos 97 - None None - -
02/25/2017 01:16 Ice Watch 22.3F - 26F - 90 - - - - 0 mhos 97 - None None - -
02/25/2017 01:12 Ice Watch 22.3F - 26F - 90 - - - - 0 mhos 97 - None None - -
02/25/2017 01:06 Ice Watch 22.5F - 26F - 90 - - - - 0 mhos 95 - None None - -
02/25/2017 00:57 Ice Watch 22.6F - 26F - 90 - - - - 0 mhos 93 - None None - -
02/25/2017 00:56 Ice Watch 22.6F - 26F - 90 - - - - 0 mhos 92 - None None - -
02/25/2017 00:46 Ice Watch 23.0F - 26F - 90 - - - - 0 mhos 89 - None None - -
02/25/2017 00:42 Ice Watch 23.2F - 26F - 90 - - - - 0 mhos 87 - None None - -
02/25/2017 00:36 Ice Watch 23.9F - 26F - 95 - - - - 0 mhos 86 - None None - -
02/25/2017 00:27 Ice Watch 24.3F - 26F - 95 - - - - 0 mhos 83 - None None - -
02/25/2017 00:26 Ice Watch 24.3F - 26F - 95 - - - - 0 mhos 83 - None None - -
02/25/2017 00:16 Ice Watch 24.4F - 27F - 95 - - - - 0 mhos 80 - None None - -
Date/Time
(MST)
Sf
Temp Chem Water Layer Surface Precipitation
Sfc Pvt Sub Frz Factor Pct Dpth DpthThk IcePct Cond Salin FI Type Intens Accum Rate
02/25/2017 00:06 Ice Watch 25.0F - 27F - 95 - - - - 0 mhos 76 - None None - -
02/24/2017 23:57 Ice Watch 25.3F - 27F - 95 - - - - 0 mhos 72 - None None - -
02/24/2017 23:55 Ice Watch 25.3F - 27F - 95 - - - - 0 mhos 72 - None None - -
02/24/2017 23:45 Ice Watch 26.6F - 27F - 95 - - - - 0 mhos 69 - None None - -
02/24/2017 23:42 Ice Watch 26.6F - 27F - 95 - - - - 0 mhos 69 - None None - -
02/24/2017 23:35 Ice Watch 26.8F - 27F - 95 - - - - 0 mhos 67 - None None - -
02/24/2017 23:27 Ice Watch 26.8F - 28F - 95 - - - - 0 mhos 67 - None None - -
02/24/2017 23:25 Ice Watch 26.8F - 28F - 95 - - - - 0 mhos 67 - None None - -
02/24/2017 23:15 Ice Watch 27.0F - 28F - 95 - - - - 0 mhos 66 - None None - -
02/24/2017 23:12 Ice Watch 27.0F - 28F - 95 - - - - 0 mhos 65 - None None - -
02/24/2017 23:05 Ice Watch 27.1F - 28F - 95 - - - - 0 mhos 64 - None None - -
02/24/2017 22:57 Ice Watch 27.1F - 28F - 95 - - - - 0 mhos 63 - None None - -
02/24/2017 22:55 Ice Watch 27.1F - 28F - 95 - - - - 0 mhos 63 - None None - -
02/24/2017 22:45 Ice Watch 27.3F - 28F - 95 - - - - 0 mhos 61 - None None - -
02/24/2017 22:42 Ice Watch 27.1F - 28F - 95 - - - - 0 mhos 62 - None None - -
Date/Time
(MST)
Sf
Temp Chem Water Layer Surface Precipitation
Sfc Pvt Sub Frz Factor Pct Dpth DpthThk IcePct Cond Salin FI Type Intens Accum Rate
02/24/2017 22:35 Ice Watch 27.1F - 28F - 95 - - - - 0 mhos 61 - None None - -
02/24/2017 22:27 Ice Watch 27.1F - 28F - 95 - - - - 0 mhos 61 - None None - -
02/24/2017 22:25 Ice Watch 27.1F - 28F - 95 - - - - 0 mhos 61 - None None - -
02/24/2017 22:15 Ice Watch 27.0F - 29F - 95 - - - - 0 mhos 64 - None None - -
02/24/2017 22:12 Ice Watch 27.1F - 29F - 95 - - - - 0 mhos 65 - None None - -
02/24/2017 22:05 Ice Watch 27.5F - 29F - 95 - - - - 0 mhos 71 - None None - -
02/24/2017 21:57 Ice Watch 27.5F - 29F - 95 - - - - 0 mhos 71 - None None - -
02/24/2017 21:55 Ice Watch 27.5F - 29F - 95 - - - - 0 mhos 71 - None None - -
02/24/2017 21:45 Ice Watch 27.7F - 29F - 95 - - - - 1 mhos 80 - None None - -
02/24/2017 21:42 Ice Watch 28.0F - 29F - 95 - - - - 1 mhos 101 - None None - -
02/24/2017 21:35 Ice Watch 28.0F - 29F - 95 - - - - 1 mhos 102 - None None - -
02/24/2017 21:27 Ice Watch 27.9F - 29F - 95 - - - - 1 mhos 105 - None None - -
02/24/2017 21:25 Ice Watch 27.9F - 30F - 95 - - - - 1 mhos 104 - None None - -
02/24/2017 21:15 Ice Watch 27.7F - 30F - 95 - - - - 1 mhos 111 - None None - -
02/24/2017 21:12 Ice Watch 27.7F - 30F - 95 - - - - 1 mhos 111 - None None - -
Date/Time
(MST)
Sf
Temp Chem Water Layer Surface Precipitation
Sfc Pvt Sub Frz Factor Pct Dpth DpthThk IcePct Cond Salin FI Type Intens Accum Rate
02/24/2017 21:05 Ice Watch 27.7F - 30F - 95 - - - - 1 mhos 108 - None None - -
02/24/2017 20:57 Ice Watch 27.7F - 30F - 95 - - - - 1 mhos 106 - None None - -
02/24/2017 20:55 Ice Watch 27.5F - 30F - 95 - - - - 1 mhos 105 - None None - -
02/24/2017 20:45 Ice Watch 27.0F - 31F - 95 - - - - 1 mhos 102 - None None - -
02/24/2017 20:42 Ice Watch 26.8F - 31F - 95 - - - - 1 mhos 101 - None None - -
02/24/2017 20:34 Ice Watch 26.6F - 31F - 95 - - - - 1 mhos 101 - None None - -
02/24/2017 20:27 Ice Watch 26.8F - 31F - 95 - - - - 1 mhos 99 - None None - -
02/24/2017 20:24 Ice Watch 26.8F - 31F - 95 - - - - 1 mhos 100 - None None - -
02/24/2017 20:14 Ice Watch 27.5F - 31F - 95 - - - - 1 mhos 102 - None None - -
02/24/2017 20:12 Ice Watch 27.7F - 31F - 95 - - - - 1 mhos 115 - None None - -
02/24/2017 20:04 Ice Watch 27.7F - 31F - 95 - - - - 1 mhos 135 - None None - -
02/24/2017 19:57 Ice Watch 28.0F - 32F - 95 - - - - 1 mhos 137 - None None - -
02/24/2017 19:54 Ice Watch 28.0F - 32F - 95 - - - - 1 mhos 149 - None None - -
02/24/2017 19:44 Ice Watch 28.6F - 32F - 95 - - - - 1 mhos 118 - None None - -
02/24/2017 19:42 Ice Watch 28.6F - 32F - 95 - - - - 1 mhos 118 - None None - -
Date/Time
(MST)
Sf
Temp Chem Water Layer Surface Precipitation
Sfc Pvt Sub Frz Factor Pct Dpth DpthThk IcePct Cond Salin FI Type Intens Accum Rate
02/24/2017 19:34 Ice Watch 28.8F - 32F - 95 - - - - 0 mhos 64 - None None - -
02/24/2017 19:27 Ice Watch 28.8F - 32F - 95 - - - - 1 mhos 75 - None None - -
02/24/2017 19:24 Ice Watch 28.8F - 32F - 95 - - - - 1 mhos 88 - None None - -
02/24/2017 19:14 Ice Watch 28.8F - 33F - 95 - - - - 1 mhos 139 - None None - -
02/24/2017 19:12 Ice Watch 28.8F - 33F - 95 - - - - 1 mhos 164 - None None - -
02/24/2017 19:04 Ice Watch 28.9F - 33F - 95 - - - - 2 mhos 225 - None None - -
02/24/2017 18:57 Ice Watch 29.3F - 33F - 95 - - - - 2 mhos 193 - None None - -
02/24/2017 18:54 Ice Watch 29.7F - 34F - 95 - - - - 2 mhos 189 - None None - -
02/24/2017 18:44 Ice Watch 30.4F - 34F - 95 - - - - 1 mhos 148 - None None - -
02/24/2017 18:42 Ice Watch 30.6F - 35F - 95 - - - - 1 mhos 137 - None None - -
02/24/2017 18:34 Ice Watch 31.1F - 35F - 95 - - - - 1 mhos 89 - None None - -
02/24/2017 18:27 Ice Watch 31.8F - 35F - 95 - - - - 0 mhos 48 - None None - -
02/24/2017 18:24 Trace Moisture 32.2F - 36F - 95 - - - - 0 mhos 26 - None None - -
Change End Date:

Copyright © 1998-2015 Vaisala, Inc.
All Rights Reserved
Send comments about the data to:
SCAN Web ® is a registered trademark of Vaisala, Inc.
SCAN Web Version 6.0